Disclaimer

Please do not use the information listed here in-flight or in-navigation, as they are not provided to us by the airports but are provided by volunteers, so they might be outdated.

Search


Regions


Airport information page

No radio frequency information is available.

Airport informations:
Latitude: 55° 13' 31.99" N
Longitude: 009° 15' 50.15" E
Elevation: 141 feet - 43 meters
Operating hours: Remarks
Operating agency: Military-civil joint use airport
Timezone: UTC+1(+2DT) - Last Sunday in March to last Sunday in October
Fuel: Jet A1, without icing nhibitor.

JP-8, SemiKeroscene MIL Spec T-83133, without icing inhibitor

100/130 MIL Spec, low lead, aviation gasoline (BLUE)

Runway information:
11R/29L - 9750 x 80 feet< - >2972 x 24 meters
11L/29R - 9863 x 150 feet< - >3006 x 46 meters

Recent METARs:
EKSP 151650Z 12012KT 9999 BKN022 01/M03 Q1025
EKSP 151720Z 13015KT 9999 SCT024 00/M04 Q1025
EKSP 151750Z 14015KT 9999 FEW024 M01/M05 Q1025

Airport on the map: